createdAt,value
2023-03-16T00:03:01.640Z,23.30
2023-03-16T00:05:48.477Z,22.00
2023-03-16T00:08:35.102Z,27.30
2023-03-16T00:11:20.809Z,29.70
2023-03-16T00:14:06.825Z,27.20
2023-03-16T00:16:52.743Z,22.40
2023-03-16T00:19:38.247Z,22.30
2023-03-16T00:22:28.995Z,21.20
2023-03-16T00:25:14.613Z,19.90
2023-03-16T00:28:03.052Z,20.10
2023-03-16T00:30:48.729Z,19.70
2023-03-16T00:33:34.322Z,19.50
2023-03-16T00:36:22.110Z,19.30
2023-03-16T00:39:07.857Z,19.60
2023-03-16T00:41:57.835Z,20.50
2023-03-16T00:44:43.231Z,20.50
2023-03-16T00:47:32.132Z,20.90
2023-03-16T00:50:17.414Z,21.30
2023-03-16T00:53:02.872Z,21.10
2023-03-16T00:55:48.452Z,21.90
2023-03-16T00:58:36.025Z,21.00
2023-03-16T01:01:40.532Z,17.40
2023-03-16T01:04:27.376Z,21.60
2023-03-16T01:07:14.953Z,21.20
2023-03-16T01:10:03.006Z,21.60
2023-03-16T01:12:49.885Z,21.00
2023-03-16T01:15:36.518Z,21.30
2023-03-16T01:18:23.787Z,21.50
2023-03-16T01:21:13.981Z,22.40
2023-03-16T01:24:00.484Z,22.80
2023-03-16T01:26:47.563Z,21.60
2023-03-16T01:29:35.164Z,22.40
2023-03-16T01:32:21.774Z,21.80
2023-03-16T01:35:09.319Z,22.60
2023-03-16T01:37:56.062Z,21.90
2023-03-16T01:40:42.654Z,21.10
2023-03-16T01:43:33.439Z,23.30
2023-03-16T01:46:26.796Z,22.60
2023-03-16T01:49:35.720Z,21.80
2023-03-16T01:52:29.076Z,20.20
2023-03-16T01:55:15.797Z,20.80
2023-03-16T01:58:02.629Z,19.40
2023-03-16T02:00:49.106Z,19.80
2023-03-16T02:03:39.141Z,19.50
2023-03-16T02:06:26.089Z,19.20
2023-03-16T02:13:38.702Z,18.70
2023-03-16T02:16:25.433Z,19.10
2023-03-16T02:19:20.561Z,18.60
2023-03-16T02:22:08.924Z,18.80
2023-03-16T02:24:55.607Z,18.20
2023-03-16T02:27:42.137Z,18.70
2023-03-16T02:30:29.668Z,19.00
2023-03-16T02:33:17.788Z,19.80
2023-03-16T02:40:30.960Z,19.40
2023-03-16T02:43:22.722Z,19.40
2023-03-16T02:46:09.781Z,19.50
2023-03-16T02:49:22.468Z,20.20
2023-03-16T02:52:12.205Z,19.10
2023-03-16T02:54:58.676Z,19.10
2023-03-16T02:57:45.502Z,18.20
2023-03-16T03:00:32.286Z,17.70
2023-03-16T03:03:19.059Z,19.20
2023-03-16T03:06:06.206Z,17.50
2023-03-16T03:08:52.942Z,18.90
2023-03-16T03:11:39.387Z,17.90
2023-03-16T03:14:25.859Z,17.70
2023-03-16T03:17:13.555Z,17.20
2023-03-16T03:20:02.627Z,18.10
2023-03-16T03:22:52.733Z,17.50
2023-03-16T03:25:39.169Z,17.60
2023-03-16T03:28:26.383Z,17.30
2023-03-16T03:31:17.789Z,16.80
2023-03-16T03:34:06.780Z,17.50
2023-03-16T03:36:53.759Z,15.70
2023-03-16T03:39:40.588Z,15.00
2023-03-16T03:42:29.585Z,15.20
2023-03-16T03:45:16.716Z,14.20
2023-03-16T03:48:03.638Z,15.20
2023-03-16T03:50:50.914Z,15.40
2023-03-16T03:53:37.729Z,15.30
2023-03-16T03:56:25.367Z,14.70
2023-03-16T03:59:12.225Z,15.10
2023-03-16T04:01:59.107Z,14.80
2023-03-16T04:04:45.807Z,15.10
2023-03-16T04:07:32.593Z,14.40
2023-03-16T04:10:19.055Z,14.50
2023-03-16T04:13:05.627Z,14.70
2023-03-16T04:15:59.831Z,14.60
2023-03-16T04:18:46.478Z,14.90
2023-03-16T04:21:34.089Z,15.10
2023-03-16T04:24:22.440Z,14.20
2023-03-16T04:27:12.105Z,14.80
2023-03-16T04:29:59.768Z,15.00
2023-03-16T04:32:49.512Z,15.20
2023-03-16T04:35:36.183Z,14.50
2023-03-16T04:38:22.934Z,15.00
2023-03-16T04:41:11.432Z,15.00
2023-03-16T04:43:59.092Z,14.50
2023-03-16T04:46:45.899Z,16.00
2023-03-16T04:49:32.423Z,15.40
2023-03-16T04:52:19.283Z,15.50
2023-03-16T04:55:06.540Z,15.60
2023-03-16T04:57:53.348Z,15.70
2023-03-16T05:00:41.459Z,15.70
2023-03-16T05:03:28.068Z,16.30
2023-03-16T05:06:14.763Z,16.00
2023-03-16T05:09:01.475Z,15.90
2023-03-16T05:11:47.882Z,15.90
2023-03-16T05:14:36.610Z,15.80
2023-03-16T05:17:23.109Z,15.30
2023-03-16T05:20:15.849Z,14.50
2023-03-16T05:23:03.028Z,15.20
2023-03-16T05:25:50.607Z,15.40
2023-03-16T05:28:37.032Z,14.80
2023-03-16T05:31:26.771Z,15.00
2023-03-16T05:34:13.614Z,14.80
2023-03-16T05:37:02.315Z,14.40
2023-03-16T05:39:49.021Z,13.40
2023-03-16T05:42:35.515Z,13.20
2023-03-16T05:45:22.252Z,12.90
2023-03-16T05:48:09.281Z,12.50
2023-03-16T05:50:55.773Z,11.80
2023-03-16T05:53:42.634Z,11.10
2023-03-16T05:56:31.595Z,11.20
2023-03-16T05:59:18.366Z,10.30
2023-03-16T06:02:05.255Z,10.40
2023-03-16T06:04:51.814Z,9.90
2023-03-16T06:07:41.257Z,9.70
2023-03-16T06:10:28.162Z,10.10
2023-03-16T06:13:15.174Z,9.20
2023-03-16T06:16:02.332Z,9.00
2023-03-16T06:18:49.751Z,9.20
2023-03-16T06:21:36.562Z,9.50
2023-03-16T06:24:23.597Z,9.40
2023-03-16T06:27:11.154Z,9.50
2023-03-16T06:29:57.524Z,9.40
2023-03-16T06:32:47.676Z,9.20
2023-03-16T06:35:34.839Z,9.10
2023-03-16T06:38:21.356Z,8.80
2023-03-16T06:41:08.159Z,9.10
2023-03-16T06:43:55.015Z,8.60
2023-03-16T06:46:41.883Z,8.90
2023-03-16T06:49:28.722Z,9.60
2023-03-16T06:52:15.288Z,9.90
2023-03-16T06:55:03.638Z,9.30
2023-03-16T06:57:50.530Z,9.30
2023-03-16T07:00:38.186Z,9.80
2023-03-16T07:03:27.137Z,9.30
2023-03-16T07:06:22.187Z,9.20
2023-03-16T07:09:12.577Z,9.00
2023-03-16T07:12:13.957Z,9.50
2023-03-16T07:15:01.302Z,9.10
2023-03-16T07:17:48.786Z,8.90
2023-03-16T07:20:37.199Z,8.80
2023-03-16T07:23:26.347Z,8.70
2023-03-16T07:26:14.819Z,8.90
2023-03-16T07:29:07.628Z,9.10
2023-03-16T07:31:55.826Z,9.30
2023-03-16T07:34:45.395Z,8.70
2023-03-16T07:37:35.173Z,8.30
2023-03-16T07:40:22.402Z,9.30
2023-03-16T07:43:09.346Z,9.90
2023-03-16T07:45:56.649Z,9.90
2023-03-16T07:48:52.175Z,10.30
2023-03-16T07:51:41.268Z,9.70
2023-03-16T07:54:41.730Z,10.60
2023-03-16T07:57:32.566Z,8.50
2023-03-16T08:00:24.801Z,7.50
2023-03-16T08:03:14.190Z,7.60
2023-03-16T08:06:19.924Z,7.30
2023-03-16T08:09:07.087Z,8.20
2023-03-16T08:11:57.852Z,8.40
2023-03-16T08:14:47.357Z,9.70
2023-03-16T08:17:35.585Z,9.50
2023-03-16T08:20:25.447Z,7.90
2023-03-16T08:23:13.384Z,6.70
2023-03-16T08:26:01.231Z,6.10
2023-03-16T08:29:19.025Z,7.30
2023-03-16T08:32:13.358Z,8.60
2023-03-16T08:35:08.899Z,7.80
2023-03-16T08:38:00.141Z,7.60
2023-03-16T08:40:53.925Z,6.00
2023-03-16T08:43:42.394Z,6.60
2023-03-16T08:46:32.548Z,7.50
2023-03-16T08:49:24.600Z,7.60
2023-03-16T08:52:13.202Z,7.10
2023-03-16T08:55:03.780Z,8.40
2023-03-16T08:57:52.466Z,7.60
2023-03-16T09:00:46.472Z,6.70
2023-03-16T09:03:37.371Z,6.00
2023-03-16T09:06:27.820Z,7.40
2023-03-16T09:09:15.785Z,6.80
2023-03-16T09:12:12.543Z,8.40
2023-03-16T09:15:02.520Z,8.60
2023-03-16T09:18:00.128Z,8.10
2023-03-16T09:20:48.465Z,8.20
2023-03-16T09:23:38.747Z,7.80
2023-03-16T09:37:16.453Z,6.40
2023-03-16T09:40:28.545Z,7.20
2023-03-16T09:43:59.534Z,7.70
2023-03-16T09:46:49.605Z,6.30
2023-03-16T09:49:43.976Z,6.10
2023-03-16T09:52:35.606Z,6.80
2023-03-16T09:55:28.422Z,6.80
2023-03-16T09:58:30.080Z,7.70
2023-03-16T10:01:35.462Z,7.70
2023-03-16T10:04:39.820Z,5.80
2023-03-16T10:07:50.341Z,6.10
2023-03-16T10:11:07.391Z,5.20
2023-03-16T10:14:01.439Z,4.90
2023-03-16T10:17:01.477Z,4.90
2023-03-16T10:20:01.824Z,5.10
2023-03-16T10:22:52.610Z,5.60
2023-03-16T10:25:56.583Z,6.60
2023-03-16T10:28:48.820Z,7.50
2023-03-16T10:31:41.641Z,5.70
2023-03-16T10:34:30.799Z,5.40
2023-03-16T10:37:19.624Z,4.40
2023-03-16T10:40:10.811Z,4.60
2023-03-16T10:43:10.545Z,4.60
2023-03-16T10:46:04.370Z,4.00
2023-03-16T10:49:01.991Z,3.30
2023-03-16T10:51:49.767Z,3.40
2023-03-16T10:54:41.912Z,3.60
2023-03-16T10:57:34.253Z,3.30
2023-03-16T11:00:41.896Z,3.20
2023-03-16T11:03:32.411Z,3.50
2023-03-16T11:10:59.955Z,4.40
2023-03-16T11:13:49.436Z,5.00
2023-03-16T11:27:35.090Z,4.50
2023-03-16T11:30:31.073Z,5.50
2023-03-16T11:33:19.137Z,5.40
2023-03-16T11:36:43.596Z,5.70
2023-03-16T11:39:41.097Z,5.20
2023-03-16T11:43:00.697Z,6.50
2023-03-16T11:46:02.833Z,5.20
2023-03-16T11:49:28.754Z,4.80
2023-03-16T11:53:10.405Z,4.90
2023-03-16T11:56:15.625Z,7.50
2023-03-16T11:59:18.595Z,8.80
2023-03-16T12:02:32.477Z,6.60
2023-03-16T12:05:29.573Z,5.80
2023-03-16T12:08:23.615Z,6.80
2023-03-16T12:11:23.447Z,5.80
2023-03-16T12:14:24.697Z,5.80
2023-03-16T12:17:23.431Z,5.60
2023-03-16T12:20:17.223Z,5.50
2023-03-16T12:23:33.281Z,5.70
2023-03-16T12:26:32.660Z,5.60
2023-03-16T12:29:30.983Z,6.10
2023-03-16T12:32:34.856Z,6.10
2023-03-16T12:35:46.948Z,4.90
2023-03-16T12:38:37.937Z,5.30
2023-03-16T12:41:30.182Z,5.00
2023-03-16T12:44:31.472Z,5.30
2023-03-16T12:47:46.512Z,6.80
2023-03-16T12:50:34.662Z,5.20
2023-03-16T12:53:42.338Z,4.80
2023-03-16T12:56:43.774Z,5.30
2023-03-16T12:59:43.060Z,5.30
2023-03-16T13:02:36.033Z,5.80
2023-03-16T13:05:36.301Z,5.40
2023-03-16T13:08:25.278Z,4.80
2023-03-16T13:11:16.613Z,4.70
2023-03-16T13:14:08.955Z,4.90
2023-03-16T13:17:07.206Z,4.70
2023-03-16T13:20:18.244Z,4.40
2023-03-16T13:23:53.709Z,4.50
2023-03-16T13:27:00.435Z,4.10
2023-03-16T13:29:55.575Z,4.30
2023-03-16T13:33:03.949Z,5.30
2023-03-16T13:36:08.763Z,4.80
2023-03-16T13:39:25.122Z,4.90
2023-03-16T13:42:33.518Z,4.20
2023-03-16T13:45:35.884Z,5.00
2023-03-16T13:48:26.109Z,4.80
2023-03-16T13:51:24.046Z,4.30
2023-03-16T13:54:26.703Z,4.40
2023-03-16T13:57:18.855Z,4.20
2023-03-16T14:00:20.299Z,4.40
2023-03-16T14:03:16.346Z,4.40
2023-03-16T14:06:05.617Z,4.30
2023-03-16T14:08:58.417Z,4.10
2023-03-16T14:11:48.684Z,3.80
2023-03-16T14:14:41.251Z,4.10
2023-03-16T14:17:28.926Z,4.10
2023-03-16T14:20:28.737Z,4.10
2023-03-16T14:23:24.706Z,4.30
2023-03-16T14:26:18.856Z,4.40
2023-03-16T14:29:16.219Z,4.80
2023-03-16T14:32:03.835Z,4.40
2023-03-16T14:34:51.321Z,4.50
2023-03-16T14:37:38.679Z,4.50
2023-03-16T14:40:30.900Z,4.90
2023-03-16T14:43:21.301Z,4.90
2023-03-16T14:46:13.537Z,4.60
2023-03-16T14:49:24.872Z,4.70
2023-03-16T14:52:31.775Z,5.20
2023-03-16T14:55:22.530Z,4.60
2023-03-16T14:58:10.038Z,5.00
2023-03-16T15:00:56.710Z,4.30
2023-03-16T15:03:45.196Z,4.50
2023-03-16T15:06:33.023Z,4.50
2023-03-16T15:09:47.152Z,4.30
2023-03-16T15:12:34.944Z,4.60
2023-03-16T15:15:24.073Z,4.60
2023-03-16T15:22:39.229Z,3.80
2023-03-16T15:25:37.534Z,3.60
2023-03-16T15:29:22.807Z,3.80
2023-03-16T15:32:14.696Z,3.50
2023-03-16T15:35:01.728Z,3.80
2023-03-16T15:37:48.921Z,3.40
2023-03-16T15:40:40.116Z,3.80
2023-03-16T15:43:29.418Z,3.40
2023-03-16T15:50:24.898Z,3.40
2023-03-16T15:53:29.976Z,3.60
2023-03-16T15:56:24.883Z,3.70
2023-03-16T15:59:17.307Z,4.00
2023-03-16T16:02:25.265Z,4.00
2023-03-16T16:05:12.602Z,3.80
2023-03-16T16:08:01.082Z,3.70
2023-03-16T16:10:49.889Z,3.90
2023-03-16T16:13:44.653Z,3.70
2023-03-16T16:16:33.952Z,4.30
2023-03-16T16:19:21.637Z,3.30
2023-03-16T16:22:13.162Z,3.60
2023-03-16T16:24:59.977Z,4.30
2023-03-16T16:27:47.398Z,4.30
2023-03-16T16:30:36.240Z,4.40
2023-03-16T16:33:30.187Z,4.90
2023-03-16T16:36:20.330Z,4.40
2023-03-16T16:39:07.813Z,4.70
2023-03-16T16:41:56.966Z,5.20
2023-03-16T16:44:46.597Z,5.30
2023-03-16T16:47:33.241Z,6.50
2023-03-16T16:50:23.017Z,6.80
2023-03-16T16:53:20.912Z,5.90
2023-03-16T16:56:13.739Z,5.70
2023-03-16T16:59:07.243Z,5.60
2023-03-16T17:01:57.538Z,5.40
2023-03-16T17:04:44.194Z,5.40
2023-03-16T17:07:31.014Z,5.60
2023-03-16T17:10:26.037Z,5.60
2023-03-16T17:13:39.269Z,5.60
2023-03-16T17:16:28.792Z,5.40
2023-03-16T17:19:19.863Z,6.40
2023-03-16T17:22:24.811Z,6.00
2023-03-16T17:25:11.502Z,8.30
2023-03-16T17:27:58.565Z,7.20
2023-03-16T17:30:48.239Z,7.40
2023-03-16T17:33:34.695Z,7.00
2023-03-16T17:36:22.386Z,7.30
2023-03-16T17:39:18.748Z,7.10
2023-03-16T17:42:14.570Z,7.10
2023-03-16T17:45:01.625Z,7.50
2023-03-16T17:47:50.383Z,7.40
2023-03-16T17:50:39.972Z,7.70
2023-03-16T17:53:26.889Z,7.50
2023-03-16T17:56:26.015Z,7.60
2023-03-16T17:59:19.238Z,8.20
2023-03-16T18:14:44.505Z,8.30
2023-03-16T18:17:33.784Z,9.40
2023-03-16T18:20:23.334Z,10.10
2023-03-16T18:23:16.194Z,9.70
2023-03-16T18:26:04.160Z,8.20
2023-03-16T18:28:53.489Z,9.20
2023-03-16T18:31:41.280Z,7.20
2023-03-16T18:34:33.779Z,7.50
2023-03-16T18:37:23.595Z,8.20
2023-03-16T18:40:13.738Z,8.10
2023-03-16T18:43:00.393Z,9.80
2023-03-16T18:45:48.092Z,7.90
2023-03-16T18:48:36.750Z,7.70
2023-03-16T18:51:30.508Z,7.40
2023-03-16T18:54:29.334Z,7.30
2023-03-16T18:57:19.092Z,7.70
2023-03-16T19:00:06.587Z,7.60
2023-03-16T19:02:59.371Z,7.60
2023-03-16T19:05:50.098Z,7.40
2023-03-16T19:08:36.928Z,7.40
2023-03-16T19:11:23.873Z,8.10
2023-03-16T19:14:23.569Z,7.60
2023-03-16T19:17:10.280Z,7.40
2023-03-16T19:19:57.304Z,7.60
2023-03-16T19:22:46.031Z,7.80
2023-03-16T19:25:37.586Z,7.80
2023-03-16T19:32:46.745Z,11.10
2023-03-16T19:35:50.334Z,14.80
2023-03-16T19:43:01.217Z,24.40
2023-03-16T19:45:49.259Z,29.30
2023-03-16T19:48:37.596Z,33.00
2023-03-16T19:51:26.470Z,32.40
2023-03-16T19:54:25.397Z,31.90
2023-03-16T19:57:15.320Z,33.40
2023-03-16T20:00:02.508Z,34.20
2023-03-16T20:02:51.617Z,35.30
2023-03-16T20:05:39.909Z,35.40
2023-03-16T20:09:29.616Z,36.70
2023-03-16T20:12:29.167Z,34.20
2023-03-16T20:15:20.930Z,35.50
2023-03-16T20:18:16.332Z,42.50
2023-03-16T20:21:07.283Z,46.00
2023-03-16T20:23:54.414Z,38.40
2023-03-16T20:26:48.583Z,44.70
2023-03-16T20:29:35.437Z,45.60
2023-03-16T20:32:30.862Z,48.10
2023-03-16T20:35:25.740Z,46.10
2023-03-16T20:38:14.955Z,45.20
2023-03-16T20:41:01.814Z,50.10
2023-03-16T20:43:48.581Z,54.00
2023-03-16T20:46:35.748Z,51.80
2023-03-16T20:49:21.986Z,50.30
2023-03-16T20:52:20.645Z,48.20
2023-03-16T20:55:07.361Z,49.10
2023-03-16T20:57:55.474Z,49.60
2023-03-16T21:00:41.936Z,50.80
2023-03-16T21:03:31.024Z,47.80
2023-03-16T21:06:24.271Z,46.00
2023-03-16T21:09:12.469Z,43.70
2023-03-16T21:12:00.203Z,41.30
2023-03-16T21:14:47.071Z,41.50
2023-03-16T21:17:38.306Z,37.30
2023-03-16T21:20:27.115Z,33.40
2023-03-16T21:23:22.481Z,32.10
2023-03-16T21:26:20.386Z,30.20
2023-03-16T21:29:21.349Z,31.90
2023-03-16T21:32:20.394Z,30.90
2023-03-16T21:35:14.022Z,29.90
2023-03-16T21:38:11.712Z,30.80
2023-03-16T21:40:59.622Z,30.40
2023-03-16T21:46:59.646Z,32.60
2023-03-16T21:49:46.202Z,30.00
2023-03-16T21:52:33.893Z,27.50
2023-03-16T21:55:24.042Z,30.20
2023-03-16T21:58:10.736Z,27.80
2023-03-16T22:00:58.443Z,27.00
2023-03-16T22:03:50.983Z,30.30
2023-03-16T22:06:39.502Z,34.80
2023-03-16T22:09:30.203Z,35.30
2023-03-16T22:12:16.722Z,34.00
2023-03-16T22:15:03.643Z,30.90
2023-03-16T22:17:50.467Z,31.60
2023-03-16T22:20:37.334Z,28.40
2023-03-16T22:23:34.148Z,30.30
2023-03-16T22:26:22.824Z,30.50
2023-03-16T22:29:30.886Z,30.30
2023-03-16T22:32:21.207Z,31.20
2023-03-16T22:35:22.013Z,31.60
2023-03-16T22:38:12.479Z,30.80
2023-03-16T22:41:00.637Z,30.70
2023-03-16T22:43:48.396Z,32.60
2023-03-16T22:46:34.727Z,31.60
2023-03-16T22:49:27.260Z,33.30
2023-03-16T22:52:13.742Z,32.40
2023-03-16T22:55:01.803Z,34.50
2023-03-16T22:57:51.780Z,34.50
2023-03-16T23:00:38.439Z,36.20
2023-03-16T23:03:25.259Z,35.50
2023-03-16T23:07:03.926Z,36.90
2023-03-16T23:09:50.390Z,38.70
2023-03-16T23:12:37.058Z,36.70
2023-03-16T23:15:28.640Z,37.70
2023-03-16T23:18:24.569Z,36.70
2023-03-16T23:21:19.176Z,37.60
2023-03-16T23:24:06.539Z,37.90
2023-03-16T23:26:54.654Z,38.50
2023-03-16T23:29:41.622Z,39.90
2023-03-16T23:32:28.531Z,41.30
2023-03-16T23:35:18.712Z,41.50
2023-03-16T23:38:05.734Z,41.70
2023-03-16T23:40:52.344Z,40.60
2023-03-16T23:43:43.971Z,40.80
2023-03-16T23:46:30.590Z,42.00
2023-03-16T23:49:30.689Z,41.70
2023-03-16T23:52:17.780Z,41.30
2023-03-16T23:55:10.184Z,39.50
2023-03-16T23:57:56.941Z,40.60
